sensor_id;sensor_type;location;lat;lon;timestamp;pressure;altitude;pressure_sealevel;temperature;humidity
50702;BME280;36670;50.094;8.496;2022-10-16T00:01:18;100045.78;;;18.19;73.84
50702;BME280;36670;50.094;8.496;2022-10-16T00:03:44;100039.59;;;18.08;73.91
50702;BME280;36670;50.094;8.496;2022-10-16T00:06:11;100043.50;;;17.93;74.30
50702;BME280;36670;50.094;8.496;2022-10-16T00:08:37;100034.41;;;18.01;74.26
50702;BME280;36670;50.094;8.496;2022-10-16T00:11:11;100025.09;;;18.20;73.96
50702;BME280;36670;50.094;8.496;2022-10-16T00:13:39;100026.34;;;18.28;74.09
50702;BME280;36670;50.094;8.496;2022-10-16T00:16:05;100027.16;;;18.28;73.43
50702;BME280;36670;50.094;8.496;2022-10-16T00:18:31;100035.31;;;18.24;73.59
50702;BME280;36670;50.094;8.496;2022-10-16T00:21:05;100044.56;;;18.25;74.07
50702;BME280;36670;50.094;8.496;2022-10-16T00:23:31;100043.81;;;18.33;73.62
50702;BME280;36670;50.094;8.496;2022-10-16T00:25:58;100043.59;;;18.02;74.26
50702;BME280;36670;50.094;8.496;2022-10-16T00:28:24;100040.41;;;18.22;74.12
50702;BME280;36670;50.094;8.496;2022-10-16T00:30:50;100038.75;;;18.35;73.89
50702;BME280;36670;50.094;8.496;2022-10-16T00:33:15;100032.22;;;18.40;73.57
50702;BME280;36670;50.094;8.496;2022-10-16T00:35:40;100029.13;;;18.41;73.71
50702;BME280;36670;50.094;8.496;2022-10-16T00:38:06;100032.03;;;18.36;73.92
50702;BME280;36670;50.094;8.496;2022-10-16T00:40:31;100037.38;;;18.47;73.55
50702;BME280;36670;50.094;8.496;2022-10-16T00:42:57;100043.19;;;18.36;73.84
50702;BME280;36670;50.094;8.496;2022-10-16T00:45:22;100024.56;;;18.46;73.42
50702;BME280;36670;50.094;8.496;2022-10-16T00:47:48;100031.19;;;18.36;74.41
50702;BME280;36670;50.094;8.496;2022-10-16T00:50:28;100031.78;;;18.47;73.77
50702;BME280;36670;50.094;8.496;2022-10-16T00:52:55;100044.84;;;18.51;73.39
50702;BME280;36670;50.094;8.496;2022-10-16T00:55:22;100034.59;;;18.47;73.54
50702;BME280;36670;50.094;8.496;2022-10-16T00:57:48;100028.59;;;18.39;73.24
50702;BME280;36670;50.094;8.496;2022-10-16T01:00:18;100044.31;;;18.49;73.81
50702;BME280;36670;50.094;8.496;2022-10-16T01:02:43;100045.56;;;18.57;73.45
50702;BME280;36670;50.094;8.496;2022-10-16T01:05:09;100060.78;;;18.51;73.85
50702;BME280;36670;50.094;8.496;2022-10-16T01:07:46;100059.97;;;18.50;73.94
50702;BME280;36670;50.094;8.496;2022-10-16T01:10:35;100062.03;;;18.45;74.05
50702;BME280;36670;50.094;8.496;2022-10-16T01:13:12;100067.94;;;18.29;74.82
50702;BME280;36670;50.094;8.496;2022-10-16T01:16:03;100076.50;;;18.47;74.06
50702;BME280;36670;50.094;8.496;2022-10-16T01:21:13;100074.75;;;18.51;74.05
50702;BME280;36670;50.094;8.496;2022-10-16T01:23:53;100071.03;;;18.55;74.25
50702;BME280;36670;50.094;8.496;2022-10-16T01:29:08;100054.28;;;18.55;74.41
50702;BME280;36670;50.094;8.496;2022-10-16T01:31:37;100052.69;;;18.49;74.49
50702;BME280;36670;50.094;8.496;2022-10-16T01:34:10;100054.06;;;18.52;74.56
50702;BME280;36670;50.094;8.496;2022-10-16T01:36:57;100053.94;;;18.57;74.14
50702;BME280;36670;50.094;8.496;2022-10-16T01:39:30;100060.56;;;18.61;74.19
50702;BME280;36670;50.094;8.496;2022-10-16T01:42:04;100055.06;;;18.70;73.96
50702;BME280;36670;50.094;8.496;2022-10-16T01:44:32;100058.69;;;18.70;74.08
50702;BME280;36670;50.094;8.496;2022-10-16T01:46:59;100068.97;;;18.61;73.78
50702;BME280;36670;50.094;8.496;2022-10-16T01:49:30;100074.25;;;18.49;74.41
50702;BME280;36670;50.094;8.496;2022-10-16T01:51:59;100082.72;;;18.43;75.06
50702;BME280;36670;50.094;8.496;2022-10-16T01:54:30;100080.25;;;18.42;74.92
50702;BME280;36670;50.094;8.496;2022-10-16T01:56:58;100078.81;;;18.45;74.45
50702;BME280;36670;50.094;8.496;2022-10-16T01:59:25;100076.09;;;18.53;74.75
50702;BME280;36670;50.094;8.496;2022-10-16T02:01:59;100071.66;;;18.52;74.84
50702;BME280;36670;50.094;8.496;2022-10-16T02:04:33;100074.13;;;18.68;74.38
50702;BME280;36670;50.094;8.496;2022-10-16T02:06:59;100070.06;;;18.74;74.53
50702;BME280;36670;50.094;8.496;2022-10-16T02:09:25;100077.53;;;18.65;74.68
50702;BME280;36670;50.094;8.496;2022-10-16T02:11:53;100082.53;;;18.68;74.36
50702;BME280;36670;50.094;8.496;2022-10-16T02:14:20;100085.22;;;18.59;74.52
50702;BME280;36670;50.094;8.496;2022-10-16T02:16:47;100087.38;;;18.48;74.97
50702;BME280;36670;50.094;8.496;2022-10-16T02:19:14;100084.88;;;18.60;74.83
50702;BME280;36670;50.094;8.496;2022-10-16T02:22:05;100077.16;;;18.43;75.42
50702;BME280;36670;50.094;8.496;2022-10-16T02:27:26;100084.72;;;18.57;75.29
50702;BME280;36670;50.094;8.496;2022-10-16T02:30:02;100089.34;;;18.62;75.12
50702;BME280;36670;50.094;8.496;2022-10-16T02:32:33;100088.72;;;18.65;75.08
50702;BME280;36670;50.094;8.496;2022-10-16T02:34:59;100078.69;;;18.64;75.08
50702;BME280;36670;50.094;8.496;2022-10-16T02:37:25;100086.03;;;18.73;74.73
50702;BME280;36670;50.094;8.496;2022-10-16T02:39:52;100090.91;;;18.68;74.71
50702;BME280;36670;50.094;8.496;2022-10-16T02:42:18;100097.13;;;18.65;75.05
50702;BME280;36670;50.094;8.496;2022-10-16T02:44:43;100088.00;;;18.73;74.55
50702;BME280;36670;50.094;8.496;2022-10-16T02:47:09;100078.97;;;18.62;75.18
50702;BME280;36670;50.094;8.496;2022-10-16T02:49:34;100095.56;;;18.72;74.95
50702;BME280;36670;50.094;8.496;2022-10-16T02:51:59;100102.50;;;18.75;74.77
50702;BME280;36670;50.094;8.496;2022-10-16T02:54:25;100096.91;;;18.75;74.51
50702;BME280;36670;50.094;8.496;2022-10-16T02:56:50;100102.19;;;18.63;74.67
50702;BME280;36670;50.094;8.496;2022-10-16T02:59:16;100107.16;;;18.66;74.70
50702;BME280;36670;50.094;8.496;2022-10-16T03:01:41;100110.69;;;18.57;74.60
50702;BME280;36670;50.094;8.496;2022-10-16T03:04:06;100104.28;;;18.57;74.48
50702;BME280;36670;50.094;8.496;2022-10-16T03:06:32;100101.06;;;18.50;75.13
50702;BME280;36670;50.094;8.496;2022-10-16T03:08:57;100088.53;;;18.47;75.42
50702;BME280;36670;50.094;8.496;2022-10-16T03:11:22;100098.56;;;18.48;75.18
50702;BME280;36670;50.094;8.496;2022-10-16T03:13:47;100103.56;;;18.51;75.33
50702;BME280;36670;50.094;8.496;2022-10-16T03:16:13;100101.34;;;18.48;75.25
50702;BME280;36670;50.094;8.496;2022-10-16T03:18:38;100104.59;;;18.55;75.14
50702;BME280;36670;50.094;8.496;2022-10-16T03:21:04;100105.09;;;18.57;74.81
50702;BME280;36670;50.094;8.496;2022-10-16T03:23:29;100112.97;;;18.41;75.14
50702;BME280;36670;50.094;8.496;2022-10-16T03:25:54;100114.09;;;18.54;74.88
50702;BME280;36670;50.094;8.496;2022-10-16T03:28:19;100121.25;;;18.60;75.17
50702;BME280;36670;50.094;8.496;2022-10-16T03:30:45;100110.69;;;18.43;74.84
50702;BME280;36670;50.094;8.496;2022-10-16T03:33:10;100113.69;;;18.19;75.67
50702;BME280;36670;50.094;8.496;2022-10-16T03:35:35;100109.88;;;18.29;75.95
50702;BME280;36670;50.094;8.496;2022-10-16T03:38:00;100124.16;;;18.41;75.46
50702;BME280;36670;50.094;8.496;2022-10-16T03:40:26;100120.66;;;18.50;75.48
50702;BME280;36670;50.094;8.496;2022-10-16T03:42:51;100121.88;;;18.57;74.98
50702;BME280;36670;50.094;8.496;2022-10-16T03:45:17;100123.31;;;18.55;75.01
50702;BME280;36670;50.094;8.496;2022-10-16T03:47:42;100118.03;;;18.25;75.67
50702;BME280;36670;50.094;8.496;2022-10-16T03:50:07;100127.75;;;18.28;75.63
50702;BME280;36670;50.094;8.496;2022-10-16T03:52:33;100125.06;;;18.23;75.80
50702;BME280;36670;50.094;8.496;2022-10-16T03:54:58;100119.44;;;18.09;75.93
50702;BME280;36670;50.094;8.496;2022-10-16T03:57:24;100126.09;;;18.27;75.85
50702;BME280;36670;50.094;8.496;2022-10-16T03:59:49;100126.00;;;18.46;75.08
50702;BME280;36670;50.094;8.496;2022-10-16T04:02:14;100114.22;;;18.49;75.05
50702;BME280;36670;50.094;8.496;2022-10-16T04:04:40;100114.59;;;18.15;75.99
50702;BME280;36670;50.094;8.496;2022-10-16T04:07:05;100111.25;;;17.99;76.18
50702;BME280;36670;50.094;8.496;2022-10-16T04:09:30;100130.13;;;18.07;76.44
50702;BME280;36670;50.094;8.496;2022-10-16T04:11:56;100138.84;;;18.33;75.70
50702;BME280;36670;50.094;8.496;2022-10-16T04:14:21;100138.00;;;18.47;75.16
50702;BME280;36670;50.094;8.496;2022-10-16T04:16:46;100128.56;;;18.29;75.66
50702;BME280;36670;50.094;8.496;2022-10-16T04:19:11;100124.69;;;17.97;76.44
50702;BME280;36670;50.094;8.496;2022-10-16T04:21:37;100126.56;;;17.68;77.30
50702;BME280;36670;50.094;8.496;2022-10-16T04:24:02;100134.28;;;17.90;76.98
50702;BME280;36670;50.094;8.496;2022-10-16T04:26:28;100134.16;;;18.15;76.36
50702;BME280;36670;50.094;8.496;2022-10-16T04:28:54;100137.59;;;18.25;75.97
50702;BME280;36670;50.094;8.496;2022-10-16T04:31:20;100141.75;;;18.42;75.61
50702;BME280;36670;50.094;8.496;2022-10-16T04:33:45;100142.16;;;18.35;75.38
50702;BME280;36670;50.094;8.496;2022-10-16T04:36:10;100146.09;;;18.48;75.29
50702;BME280;36670;50.094;8.496;2022-10-16T04:38:36;100148.06;;;18.48;74.86
50702;BME280;36670;50.094;8.496;2022-10-16T04:41:02;100148.16;;;18.56;74.90
50702;BME280;36670;50.094;8.496;2022-10-16T04:43:28;100157.59;;;18.60;74.69
50702;BME280;36670;50.094;8.496;2022-10-16T04:45:53;100154.47;;;18.62;74.63
50702;BME280;36670;50.094;8.496;2022-10-16T04:48:20;100148.38;;;18.60;74.67
50702;BME280;36670;50.094;8.496;2022-10-16T04:50:45;100144.78;;;18.59;74.73
50702;BME280;36670;50.094;8.496;2022-10-16T04:53:11;100138.22;;;18.50;74.60
50702;BME280;36670;50.094;8.496;2022-10-16T04:55:36;100149.31;;;18.55;75.04
50702;BME280;36670;50.094;8.496;2022-10-16T04:58:02;100156.25;;;18.58;74.35
50702;BME280;36670;50.094;8.496;2022-10-16T05:00:28;100148.88;;;18.62;74.39
50702;BME280;36670;50.094;8.496;2022-10-16T05:02:53;100160.59;;;18.64;74.33
50702;BME280;36670;50.094;8.496;2022-10-16T05:05:18;100158.94;;;18.63;74.41
50702;BME280;36670;50.094;8.496;2022-10-16T05:07:47;100159.56;;;18.60;74.54
50702;BME280;36670;50.094;8.496;2022-10-16T05:10:13;100155.50;;;18.52;73.90
50702;BME280;36670;50.094;8.496;2022-10-16T05:12:38;100161.06;;;18.24;75.03
50702;BME280;36670;50.094;8.496;2022-10-16T05:15:04;100170.41;;;18.34;74.81
50702;BME280;36670;50.094;8.496;2022-10-16T05:17:29;100159.25;;;18.48;74.35
50702;BME280;36670;50.094;8.496;2022-10-16T05:19:55;100144.22;;;18.43;74.95
50702;BME280;36670;50.094;8.496;2022-10-16T05:22:20;100150.47;;;18.07;75.52
50702;BME280;36670;50.094;8.496;2022-10-16T05:24:45;100152.81;;;18.19;75.77
50702;BME280;36670;50.094;8.496;2022-10-16T05:27:11;100145.16;;;18.39;75.52
50702;BME280;36670;50.094;8.496;2022-10-16T05:29:46;100148.69;;;18.45;74.77
50702;BME280;36670;50.094;8.496;2022-10-16T05:32:12;100158.94;;;18.49;74.34
50702;BME280;36670;50.094;8.496;2022-10-16T05:34:38;100145.66;;;18.41;74.79
50702;BME280;36670;50.094;8.496;2022-10-16T05:37:03;100149.63;;;18.40;74.45
50702;BME280;36670;50.094;8.496;2022-10-16T05:39:28;100154.47;;;18.34;74.50
50702;BME280;36670;50.094;8.496;2022-10-16T05:41:53;100160.97;;;18.16;74.95
50702;BME280;36670;50.094;8.496;2022-10-16T05:44:19;100153.84;;;18.23;74.54
50702;BME280;36670;50.094;8.496;2022-10-16T05:46:46;100168.31;;;18.25;74.88
50702;BME280;36670;50.094;8.496;2022-10-16T05:49:11;100180.81;;;18.14;74.91
50702;BME280;36670;50.094;8.496;2022-10-16T05:51:36;100169.69;;;17.95;75.88
50702;BME280;36670;50.094;8.496;2022-10-16T05:54:02;100180.22;;;18.17;75.11
50702;BME280;36670;50.094;8.496;2022-10-16T05:56:27;100187.50;;;18.32;74.37
50702;BME280;36670;50.094;8.496;2022-10-16T05:58:52;100185.75;;;18.36;74.65
50702;BME280;36670;50.094;8.496;2022-10-16T06:01:19;100188.31;;;18.33;74.81
50702;BME280;36670;50.094;8.496;2022-10-16T06:03:45;100192.25;;;18.32;75.17
50702;BME280;36670;50.094;8.496;2022-10-16T06:06:15;100192.16;;;18.37;74.92
50702;BME280;36670;50.094;8.496;2022-10-16T06:08:42;100201.94;;;18.20;75.04
50702;BME280;36670;50.094;8.496;2022-10-16T06:11:13;100193.19;;;17.94;75.75
50702;BME280;36670;50.094;8.496;2022-10-16T06:13:39;100200.66;;;17.99;76.11
50702;BME280;36670;50.094;8.496;2022-10-16T06:16:07;100200.66;;;17.99;75.79
50702;BME280;36670;50.094;8.496;2022-10-16T06:18:33;100206.78;;;18.15;75.43
50702;BME280;36670;50.094;8.496;2022-10-16T06:20:58;100204.56;;;18.31;75.04
50702;BME280;36670;50.094;8.496;2022-10-16T06:23:24;100208.81;;;18.28;75.54
50702;BME280;36670;50.094;8.496;2022-10-16T06:25:50;100207.56;;;18.34;75.34
50702;BME280;36670;50.094;8.496;2022-10-16T06:28:16;100206.97;;;18.37;75.23
50702;BME280;36670;50.094;8.496;2022-10-16T06:30:42;100214.78;;;18.21;75.36
50702;BME280;36670;50.094;8.496;2022-10-16T06:33:09;100218.28;;;18.13;75.61
50702;BME280;36670;50.094;8.496;2022-10-16T06:35:35;100212.84;;;18.22;75.77
50702;BME280;36670;50.094;8.496;2022-10-16T06:38:00;100204.97;;;18.24;75.44
50702;BME280;36670;50.094;8.496;2022-10-16T06:40:25;100211.41;;;18.38;74.68
50702;BME280;36670;50.094;8.496;2022-10-16T06:42:50;100204.19;;;18.51;74.25
50702;BME280;36670;50.094;8.496;2022-10-16T06:45:17;100222.22;;;18.59;74.47
50702;BME280;36670;50.094;8.496;2022-10-16T06:47:42;100218.19;;;18.65;73.88
50702;BME280;36670;50.094;8.496;2022-10-16T06:50:07;100219.81;;;18.66;74.16
50702;BME280;36670;50.094;8.496;2022-10-16T06:52:33;100219.22;;;18.69;73.67
50702;BME280;36670;50.094;8.496;2022-10-16T06:54:59;100223.78;;;18.65;73.49
50702;BME280;36670;50.094;8.496;2022-10-16T06:57:24;100226.28;;;18.67;73.69
50702;BME280;36670;50.094;8.496;2022-10-16T06:59:50;100232.59;;;18.72;73.92
50702;BME280;36670;50.094;8.496;2022-10-16T07:02:15;100229.25;;;18.70;73.81
50702;BME280;36670;50.094;8.496;2022-10-16T07:04:40;100234.44;;;18.63;74.27
50702;BME280;36670;50.094;8.496;2022-10-16T07:07:06;100235.16;;;18.69;73.97
50702;BME280;36670;50.094;8.496;2022-10-16T07:09:31;100237.47;;;18.81;73.34
50702;BME280;36670;50.094;8.496;2022-10-16T07:11:56;100241.59;;;18.55;74.36
50702;BME280;36670;50.094;8.496;2022-10-16T07:14:21;100241.72;;;18.31;75.10
50702;BME280;36670;50.094;8.496;2022-10-16T07:16:47;100240.91;;;18.31;74.94
50702;BME280;36670;50.094;8.496;2022-10-16T07:19:14;100244.94;;;18.38;74.80
50702;BME280;36670;50.094;8.496;2022-10-16T07:21:41;100253.56;;;18.42;75.28
50702;BME280;36670;50.094;8.496;2022-10-16T07:24:13;100264.38;;;18.63;74.35
50702;BME280;36670;50.094;8.496;2022-10-16T07:26:40;100269.28;;;18.85;74.13
50702;BME280;36670;50.094;8.496;2022-10-16T07:29:18;100267.16;;;18.96;74.04
50702;BME280;36670;50.094;8.496;2022-10-16T07:31:44;100283.94;;;18.96;73.96
50702;BME280;36670;50.094;8.496;2022-10-16T07:34:11;100273.47;;;19.01;73.71
50702;BME280;36670;50.094;8.496;2022-10-16T07:36:36;100285.88;;;18.95;73.76
50702;BME280;36670;50.094;8.496;2022-10-16T07:39:02;100297.81;;;19.01;73.80
50702;BME280;36670;50.094;8.496;2022-10-16T07:41:27;100302.66;;;18.95;73.69
50702;BME280;36670;50.094;8.496;2022-10-16T07:43:53;100305.16;;;18.97;73.99
50702;BME280;36670;50.094;8.496;2022-10-16T07:46:21;100308.75;;;18.83;73.82
50702;BME280;36670;50.094;8.496;2022-10-16T07:48:47;100299.06;;;18.95;73.72
50702;BME280;36670;50.094;8.496;2022-10-16T07:51:15;100299.47;;;19.02;73.68
50702;BME280;36670;50.094;8.496;2022-10-16T07:53:40;100303.91;;;18.89;74.13
50702;BME280;36670;50.094;8.496;2022-10-16T07:56:07;100313.16;;;19.03;74.88
50702;BME280;36670;50.094;8.496;2022-10-16T07:58:33;100321.88;;;19.30;73.94
50702;BME280;36670;50.094;8.496;2022-10-16T08:01:09;100322.28;;;19.37;73.68
50702;BME280;36670;50.094;8.496;2022-10-16T08:03:35;100334.00;;;19.39;73.19
50702;BME280;36670;50.094;8.496;2022-10-16T08:06:01;100338.44;;;19.40;72.98
50702;BME280;36670;50.094;8.496;2022-10-16T08:08:27;100345.72;;;19.41;72.76
50702;BME280;36670;50.094;8.496;2022-10-16T08:10:53;100338.88;;;19.47;72.83
50702;BME280;36670;50.094;8.496;2022-10-16T08:13:18;100335.13;;;19.52;72.61
50702;BME280;36670;50.094;8.496;2022-10-16T08:15:44;100341.25;;;19.54;72.61
50702;BME280;36670;50.094;8.496;2022-10-16T08:18:11;100345.31;;;19.48;72.98
50702;BME280;36670;50.094;8.496;2022-10-16T08:20:37;100355.78;;;19.56;73.03
50702;BME280;36670;50.094;8.496;2022-10-16T08:23:03;100354.50;;;19.62;72.47
50702;BME280;36670;50.094;8.496;2022-10-16T08:25:29;100364.25;;;19.65;72.54
50702;BME280;36670;50.094;8.496;2022-10-16T08:27:55;100355.03;;;19.64;72.23
50702;BME280;36670;50.094;8.496;2022-10-16T08:30:22;100361.38;;;19.56;72.72
50702;BME280;36670;50.094;8.496;2022-10-16T08:32:48;100361.06;;;19.43;73.01
50702;BME280;36670;50.094;8.496;2022-10-16T08:35:14;100374.53;;;19.41;73.24
50702;BME280;36670;50.094;8.496;2022-10-16T08:37:40;100372.16;;;19.21;73.44
50702;BME280;36670;50.094;8.496;2022-10-16T08:40:07;100379.28;;;19.27;72.95
50702;BME280;36670;50.094;8.496;2022-10-16T08:46:15;100393.97;;;19.05;73.73
50702;BME280;36670;50.094;8.496;2022-10-16T08:48:47;100396.09;;;19.27;73.14
50702;BME280;36670;50.094;8.496;2022-10-16T08:51:32;100399.31;;;19.34;72.96
50702;BME280;36670;50.094;8.496;2022-10-16T08:54:01;100400.25;;;19.30;73.04
50702;BME280;36670;50.094;8.496;2022-10-16T08:56:28;100396.00;;;19.46;73.05
50702;BME280;36670;50.094;8.496;2022-10-16T08:58:54;100388.44;;;19.47;73.08
50702;BME280;36670;50.094;8.496;2022-10-16T09:01:21;100391.94;;;19.38;72.89
50702;BME280;36670;50.094;8.496;2022-10-16T09:11:58;100424.34;;;19.72;72.53
50702;BME280;36670;50.094;8.496;2022-10-16T09:17:40;100427.97;;;19.73;72.55
50702;BME280;36670;50.094;8.496;2022-10-16T09:23:15;100441.69;;;19.88;72.32
50702;BME280;36670;50.094;8.496;2022-10-16T09:25:43;100450.00;;;19.93;71.43
50702;BME280;36670;50.094;8.496;2022-10-16T09:28:09;100445.22;;;19.80;72.48
50702;BME280;36670;50.094;8.496;2022-10-16T09:30:35;100457.41;;;19.70;72.78
50702;BME280;36670;50.094;8.496;2022-10-16T09:33:02;100452.88;;;19.88;72.16
50702;BME280;36670;50.094;8.496;2022-10-16T09:35:38;100449.09;;;19.79;72.42
50702;BME280;36670;50.094;8.496;2022-10-16T09:38:04;100454.41;;;19.67;73.06
50702;BME280;36670;50.094;8.496;2022-10-16T09:40:32;100458.97;;;19.49;73.24
50702;BME280;36670;50.094;8.496;2022-10-16T09:45:40;100448.56;;;19.35;74.39
50702;BME280;36670;50.094;8.496;2022-10-16T09:48:13;100459.50;;;19.65;74.27
50702;BME280;36670;50.094;8.496;2022-10-16T09:50:38;100468.72;;;19.65;73.79
50702;BME280;36670;50.094;8.496;2022-10-16T09:53:11;100475.78;;;19.76;73.58
50702;BME280;36670;50.094;8.496;2022-10-16T09:55:48;100467.69;;;19.61;74.03
50702;BME280;36670;50.094;8.496;2022-10-16T09:58:14;100467.78;;;19.42;74.45
50702;BME280;36670;50.094;8.496;2022-10-16T10:00:41;100467.91;;;19.65;74.15
50702;BME280;36670;50.094;8.496;2022-10-16T10:03:10;100474.03;;;19.67;74.73
50702;BME280;36670;50.094;8.496;2022-10-16T10:05:39;100463.28;;;19.88;74.45
50702;BME280;36670;50.094;8.496;2022-10-16T10:08:05;100469.19;;;19.86;74.67
50702;BME280;36670;50.094;8.496;2022-10-16T10:10:33;100469.97;;;20.28;74.59
50702;BME280;36670;50.094;8.496;2022-10-16T10:12:59;100464.91;;;20.31;74.15
50702;BME280;36670;50.094;8.496;2022-10-16T10:15:25;100465.44;;;20.19;74.09
50702;BME280;36670;50.094;8.496;2022-10-16T10:17:54;100461.69;;;19.95;74.14
50702;BME280;36670;50.094;8.496;2022-10-16T10:22:51;100454.84;;;20.16;72.67
50702;BME280;36670;50.094;8.496;2022-10-16T10:25:30;100464.25;;;20.34;73.58
50702;BME280;36670;50.094;8.496;2022-10-16T10:28:05;100459.09;;;20.13;73.80
50702;BME280;36670;50.094;8.496;2022-10-16T10:38:59;100454.78;;;21.03;72.32
50702;BME280;36670;50.094;8.496;2022-10-16T10:44:40;100462.50;;;20.74;71.57
50702;BME280;36670;50.094;8.496;2022-10-16T10:50:31;100446.75;;;21.41;71.18
50702;BME280;36670;50.094;8.496;2022-10-16T11:01:56;100461.38;;;20.98;70.51
50702;BME280;36670;50.094;8.496;2022-10-16T11:07:05;100465.44;;;21.69;70.11
50702;BME280;36670;50.094;8.496;2022-10-16T11:09:45;100462.09;;;22.07;69.27
50702;BME280;36670;50.094;8.496;2022-10-16T11:12:19;100462.63;;;22.09;68.55
50702;BME280;36670;50.094;8.496;2022-10-16T11:15:18;100457.59;;;21.97;68.07
50702;BME280;36670;50.094;8.496;2022-10-16T11:20:23;100459.38;;;21.75;68.55
50702;BME280;36670;50.094;8.496;2022-10-16T11:23:03;100459.28;;;21.58;67.58
50702;BME280;36670;50.094;8.496;2022-10-16T11:25:31;100459.72;;;21.82;68.64
50702;BME280;36670;50.094;8.496;2022-10-16T11:30:31;100451.78;;;21.85;68.05
50702;BME280;36670;50.094;8.496;2022-10-16T11:38:32;100453.19;;;22.13;67.51
50702;BME280;36670;50.094;8.496;2022-10-16T11:41:28;100457.03;;;21.77;67.70
50702;BME280;36670;50.094;8.496;2022-10-16T11:49:58;100442.56;;;22.02;68.46
50702;BME280;36670;50.094;8.496;2022-10-16T11:52:33;100447.41;;;22.19;67.88
50702;BME280;36670;50.094;8.496;2022-10-16T11:55:20;100435.66;;;22.08;67.44
50702;BME280;36670;50.094;8.496;2022-10-16T11:57:51;100437.50;;;22.30;67.91
50702;BME280;36670;50.094;8.496;2022-10-16T12:00:31;100434.19;;;22.28;67.82
50702;BME280;36670;50.094;8.496;2022-10-16T12:06:13;100451.28;;;22.49;66.55
50702;BME280;36670;50.094;8.496;2022-10-16T12:08:40;100436.03;;;22.85;66.28
50702;BME280;36670;50.094;8.496;2022-10-16T12:16:56;100436.69;;;22.91;65.79
50702;BME280;36670;50.094;8.496;2022-10-16T12:19:24;100448.13;;;22.77;65.49
50702;BME280;36670;50.094;8.496;2022-10-16T12:21:51;100441.50;;;22.99;65.57
50702;BME280;36670;50.094;8.496;2022-10-16T12:26:57;100443.78;;;23.32;64.18
50702;BME280;36670;50.094;8.496;2022-10-16T12:29:30;100445.13;;;23.26;64.23
50702;BME280;36670;50.094;8.496;2022-10-16T12:31:57;100454.88;;;23.28;63.49
50702;BME280;36670;50.094;8.496;2022-10-16T12:34:35;100458.47;;;23.46;63.58
50702;BME280;36670;50.094;8.496;2022-10-16T12:37:21;100454.94;;;23.67;63.37
50702;BME280;36670;50.094;8.496;2022-10-16T12:39:48;100449.13;;;23.72;63.16
50702;BME280;36670;50.094;8.496;2022-10-16T12:44:51;100460.38;;;23.72;63.07
50702;BME280;36670;50.094;8.496;2022-10-16T12:50:35;100456.97;;;23.58;63.39
50702;BME280;36670;50.094;8.496;2022-10-16T12:53:15;100453.31;;;23.57;62.52
50702;BME280;36670;50.094;8.496;2022-10-16T12:56:08;100453.91;;;23.15;62.88
50702;BME280;36670;50.094;8.496;2022-10-16T12:58:59;100462.38;;;23.07;62.65
50702;BME280;36670;50.094;8.496;2022-10-16T13:01:49;100457.72;;;22.93;63.44
50702;BME280;36670;50.094;8.496;2022-10-16T13:05:00;100462.69;;;22.88;63.24
50702;BME280;36670;50.094;8.496;2022-10-16T13:13:16;100456.91;;;22.93;63.31
50702;BME280;36670;50.094;8.496;2022-10-16T13:16:09;100466.00;;;22.81;63.23
50702;BME280;36670;50.094;8.496;2022-10-16T13:21:28;100463.69;;;23.09;62.78
50702;BME280;36670;50.094;8.496;2022-10-16T13:24:12;100458.88;;;23.18;62.39
50702;BME280;36670;50.094;8.496;2022-10-16T13:27:10;100469.16;;;23.14;62.94
50702;BME280;36670;50.094;8.496;2022-10-16T13:29:41;100468.00;;;22.98;62.48
50702;BME280;36670;50.094;8.496;2022-10-16T13:32:09;100463.88;;;23.22;62.00
50702;BME280;36670;50.094;8.496;2022-10-16T13:34:47;100465.34;;;23.01;62.23
50702;BME280;36670;50.094;8.496;2022-10-16T13:37:18;100461.50;;;23.32;61.96
50702;BME280;36670;50.094;8.496;2022-10-16T13:39:44;100452.84;;;23.46;61.32
50702;BME280;36670;50.094;8.496;2022-10-16T13:42:13;100455.50;;;23.51;62.20
50702;BME280;36670;50.094;8.496;2022-10-16T13:44:42;100459.16;;;23.43;62.01
50702;BME280;36670;50.094;8.496;2022-10-16T13:47:23;100449.16;;;23.55;61.73
50702;BME280;36670;50.094;8.496;2022-10-16T13:50:13;100451.16;;;23.54;61.01
50702;BME280;36670;50.094;8.496;2022-10-16T13:52:39;100455.91;;;23.71;61.59
50702;BME280;36670;50.094;8.496;2022-10-16T13:55:14;100450.78;;;23.73;61.58
50702;BME280;36670;50.094;8.496;2022-10-16T13:57:40;100449.00;;;23.60;61.15
50702;BME280;36670;50.094;8.496;2022-10-16T14:00:24;100450.78;;;23.64;60.68
50702;BME280;36670;50.094;8.496;2022-10-16T14:02:55;100446.91;;;23.39;61.09
50702;BME280;36670;50.094;8.496;2022-10-16T14:05:22;100445.44;;;23.24;61.45
50702;BME280;36670;50.094;8.496;2022-10-16T14:07:50;100436.22;;;23.15;61.35
50702;BME280;36670;50.094;8.496;2022-10-16T14:10:26;100433.19;;;23.11;62.33
50702;BME280;36670;50.094;8.496;2022-10-16T14:13:19;100436.38;;;23.01;61.85
50702;BME280;36670;50.094;8.496;2022-10-16T14:15:47;100452.78;;;23.16;62.01
50702;BME280;36670;50.094;8.496;2022-10-16T14:18:19;100452.22;;;23.32;61.90
50702;BME280;36670;50.094;8.496;2022-10-16T14:20:46;100457.69;;;23.37;61.44
50702;BME280;36670;50.094;8.496;2022-10-16T14:23:31;100458.38;;;23.34;62.10
50702;BME280;36670;50.094;8.496;2022-10-16T14:26:13;100449.94;;;23.25;61.55
50702;BME280;36670;50.094;8.496;2022-10-16T14:28:40;100453.03;;;23.32;62.03
50702;BME280;36670;50.094;8.496;2022-10-16T14:31:25;100454.50;;;23.47;61.23
50702;BME280;36670;50.094;8.496;2022-10-16T14:33:51;100456.63;;;23.59;61.81
50702;BME280;36670;50.094;8.496;2022-10-16T14:36:17;100457.81;;;23.49;61.54
50702;BME280;36670;50.094;8.496;2022-10-16T14:39:05;100460.66;;;23.49;61.65
50702;BME280;36670;50.094;8.496;2022-10-16T14:41:33;100461.19;;;23.34;62.61